F/V Manathia — FGSL — position and weather

sailwx.info

Track history (hours):
 
Tides and Currents Weather Stations Pressure Air Temp Water Temp Dewpoint Dewpoint Depression Visibility Wind Speed Wind Dir Waves Ship Positions

F/V Manathia

Last reported at 2015-Aug-22 08:29 UTC. Time now 2015-Sep-03 06:56 UTC.
Position N 47°48' W 004°17'.
Warning: this ship's position is 11 days out of date.

Length 16 m.

Type: Fishing. MMSI: 228258000.

Date/timePositionNaut miles runAvg speedWind from/ knotsBaromVisibWave heightAir tempDewpointWater temp
2015-Aug-22 08:29N 47°48' W 004°17'0 0.0
2015-Aug-22 06:32N 47°48' W 004°17'0 0.0
2015-Aug-22 05:33N 47°48' W 004°17'0 0.0
2015-Aug-22 04:26N 47°48' W 004°17'0 0.0
2015-Aug-22 03:33N 47°48' W 004°17'0 0.0
2015-Aug-22 02:33N 47°48' W 004°17'0 0.0
2015-Aug-22 01:13N 47°48' W 004°17'0 0.0
2015-Aug-22 00:33N 47°48' W 004°17'0 0.0
2015-Aug-21 23:33N 47°48' W 004°17'0 0.0
2015-Aug-21 22:33N 47°48' W 004°17'0 0.0
2015-Aug-21 21:33N 47°48' W 004°17'0 0.0
2015-Aug-21 20:33N 47°48' W 004°17'0 0.0
2015-Aug-21 19:27N 47°48' W 004°17'0 0.0
2015-Aug-21 17:12N 47°48' W 004°17'0 0.0
2015-Aug-21 16:30N 47°48' W 004°17'0 0.0
2015-Aug-21 14:33N 47°48' W 004°17'0 0.0
2015-Aug-21 13:15N 47°48' W 004°17'0 0.0
2015-Aug-20 10:30N 47°48' W 004°17'1 0.0
2015-Aug-18 14:33N 47°47' W 004°18'7 6.4
2015-Aug-18 13:28N 47°42' W 004°25'8 4.3
2015-Aug-18 11:33N 47°38' W 004°36'2 0.3
2015-Aug-18 06:33N 47°39' W 004°38'1 0.1
2015-Aug-17 09:13N 47°38' W 004°36'4 3.3
2015-Aug-17 08:03N 47°38' W 004°30'2 0.9
2015-Aug-17 05:32N 47°37' W 004°33'  
Track history (hours):
 
Tides and Currents Weather Stations Pressure Air Temp Water Temp Dewpoint Dewpoint Depression Visibility Wind Speed Wind Dir Waves Ship Positions

F/V Manathia

Last reported at 2015-Aug-22 08:29 UTC. Time now 2015-Sep-03 06:56 UTC.
Position N 47°48' W 004°17'.
Warning: this ship's position is 11 days out of date.

Length 16 m.

Type: Fishing. MMSI: 228258000.

Date/timePositionNaut miles runAvg speedWind from/ knotsBaromVisibWave heightAir tempDewpointWater temp
2015-Aug-22 08:29N 47°48' W 004°17'0 0.0
2015-Aug-22 06:32N 47°48' W 004°17'0 0.0
2015-Aug-22 05:33N 47°48' W 004°17'0 0.0
2015-Aug-22 04:26N 47°48' W 004°17'0 0.0
2015-Aug-22 03:33N 47°48' W 004°17'0 0.0
2015-Aug-22 02:33N 47°48' W 004°17'0 0.0
2015-Aug-22 01:13N 47°48' W 004°17'0 0.0
2015-Aug-22 00:33N 47°48' W 004°17'0 0.0
2015-Aug-21 23:33N 47°48' W 004°17'0 0.0
2015-Aug-21 22:33N 47°48' W 004°17'0 0.0
2015-Aug-21 21:33N 47°48' W 004°17'0 0.0
2015-Aug-21 20:33N 47°48' W 004°17'0 0.0
2015-Aug-21 19:27N 47°48' W 004°17'0 0.0
2015-Aug-21 17:12N 47°48' W 004°17'0 0.0
2015-Aug-21 16:30N 47°48' W 004°17'0 0.0
2015-Aug-21 14:33N 47°48' W 004°17'0 0.0
2015-Aug-21 13:15N 47°48' W 004°17'0 0.0
2015-Aug-20 10:30N 47°48' W 004°17'1 0.0
2015-Aug-18 14:33N 47°47' W 004°18'7 6.4
2015-Aug-18 13:28N 47°42' W 004°25'8 4.3
2015-Aug-18 11:33N 47°38' W 004°36'2 0.3
2015-Aug-18 06:33N 47°39' W 004°38'1 0.1
2015-Aug-17 09:13N 47°38' W 004°36'4 3.3
2015-Aug-17 08:03N 47°38' W 004°30'2 0.9
2015-Aug-17 05:32N 47°37' W 004°33'  

Dump ship's entire track history